Stk-1004 — UBEM — position and weather

sailwx.info

Track history (hours):
 
Tides and Currents Weather Stations Pressure Air Temp Water Temp Dewpoint Dewpoint Depression Visibility Wind Speed Wind Dir Waves Ship Positions

Stk-1004

Last reported at 2016-Jul-23 00:33 UTC. Time now 2016-Jul-23 19:22 UTC.
Position N 59°51' E 030°30'.

Length 82 m; draft 2.4 m.

Type: Cargo ship. MMSI: 273439130.

Date/timePositionNaut miles runAvg speedWind from/ knotsBaromVisibWave heightAir tempDewpointWater temp
2016-Jul-23 00:33N 59°51' E 030°30'5 4.8
2016-Jul-22 23:33N 59°55' E 030°24'4 3.8
2016-Jul-22 22:33N 59°56' E 030°17'0 0.1
2016-Jul-22 21:33N 59°56' E 030°17'0 0.0
2016-Jul-22 20:33N 59°56' E 030°17'0 0.0
2016-Jul-22 19:33N 59°56' E 030°17'0 0.0
2016-Jul-22 18:33N 59°56' E 030°17'0 0.0
2016-Jul-22 17:33N 59°56' E 030°17'0 0.0
2016-Jul-22 16:33N 59°56' E 030°17'0 0.0
2016-Jul-22 15:33N 59°56' E 030°17'0 0.0
2016-Jul-22 14:33N 59°56' E 030°17'0 0.0
2016-Jul-22 13:33N 59°56' E 030°17'0 0.0
2016-Jul-22 12:33N 59°56' E 030°17'0 0.0
2016-Jul-22 11:33N 59°56' E 030°17'0 0.0
2016-Jul-22 10:33N 59°56' E 030°17'0 0.0
2016-Jul-22 09:33N 59°56' E 030°17'0 0.0
2016-Jul-22 08:33N 59°56' E 030°17'0 0.1
2016-Jul-22 07:33N 59°56' E 030°17'19 6.2
2016-Jul-22 04:33N 59°60' E 029°40'44 1.0
2016-Jul-20 10:24N 60°20' E 028°22'6 7.1
2016-Jul-20 09:33N 60°16' E 028°30'7 7.5
2016-Jul-20 08:33N 60°11' E 028°41'  
Track history (hours):
 
Tides and Currents Weather Stations Pressure Air Temp Water Temp Dewpoint Dewpoint Depression Visibility Wind Speed Wind Dir Waves Ship Positions

Stk-1004

Last reported at 2016-Jul-23 00:33 UTC. Time now 2016-Jul-23 19:22 UTC.
Position N 59°51' E 030°30'.

Length 82 m; draft 2.4 m.

Type: Cargo ship. MMSI: 273439130.

Date/timePositionNaut miles runAvg speedWind from/ knotsBaromVisibWave heightAir tempDewpointWater temp
2016-Jul-23 00:33N 59°51' E 030°30'5 4.8
2016-Jul-22 23:33N 59°55' E 030°24'4 3.8
2016-Jul-22 22:33N 59°56' E 030°17'0 0.1
2016-Jul-22 21:33N 59°56' E 030°17'0 0.0
2016-Jul-22 20:33N 59°56' E 030°17'0 0.0
2016-Jul-22 19:33N 59°56' E 030°17'0 0.0
2016-Jul-22 18:33N 59°56' E 030°17'0 0.0
2016-Jul-22 17:33N 59°56' E 030°17'0 0.0
2016-Jul-22 16:33N 59°56' E 030°17'0 0.0
2016-Jul-22 15:33N 59°56' E 030°17'0 0.0
2016-Jul-22 14:33N 59°56' E 030°17'0 0.0
2016-Jul-22 13:33N 59°56' E 030°17'0 0.0
2016-Jul-22 12:33N 59°56' E 030°17'0 0.0
2016-Jul-22 11:33N 59°56' E 030°17'0 0.0
2016-Jul-22 10:33N 59°56' E 030°17'0 0.0
2016-Jul-22 09:33N 59°56' E 030°17'0 0.0
2016-Jul-22 08:33N 59°56' E 030°17'0 0.1
2016-Jul-22 07:33N 59°56' E 030°17'19 6.2
2016-Jul-22 04:33N 59°60' E 029°40'44 1.0
2016-Jul-20 10:24N 60°20' E 028°22'6 7.1
2016-Jul-20 09:33N 60°16' E 028°30'7 7.5
2016-Jul-20 08:33N 60°11' E 028°41'  

Dump ship's entire track history